createdAt,value
2018-11-28T00:01:10.424Z,16.63
2018-11-28T00:03:42.947Z,15.17
2018-11-28T00:06:15.290Z,10.87
2018-11-28T00:08:47.735Z,13.63
2018-11-28T00:11:20.252Z,20.10
2018-11-28T00:13:52.415Z,13.03
2018-11-28T00:16:24.771Z,14.27
2018-11-28T00:18:57.035Z,13.33
2018-11-28T00:21:29.430Z,15.00
2018-11-28T00:24:01.583Z,12.53
2018-11-28T00:26:34.151Z,16.50
2018-11-28T00:29:07.017Z,20.40
2018-11-28T00:31:39.613Z,17.87
2018-11-28T00:34:11.739Z,15.00
2018-11-28T00:36:44.733Z,22.97
2018-11-28T00:39:17.193Z,23.80
2018-11-28T00:41:49.408Z,22.27
2018-11-28T00:44:22.388Z,22.07
2018-11-28T00:46:55.062Z,22.60
2018-11-28T00:49:27.446Z,24.53
2018-11-28T00:52:00.082Z,22.83
2018-11-28T00:54:32.619Z,22.90
2018-11-28T00:57:04.819Z,20.20
2018-11-28T00:59:37.313Z,24.40
2018-11-28T01:02:09.719Z,24.13
2018-11-28T01:04:42.256Z,21.07
2018-11-28T01:07:14.656Z,20.80
2018-11-28T01:09:47.036Z,24.60
2018-11-28T01:12:19.251Z,25.53
2018-11-28T01:14:51.398Z,20.07
2018-11-28T01:17:23.778Z,17.63
2018-11-28T01:19:56.416Z,18.23
2018-11-28T01:22:30.482Z,34.87
2018-11-28T01:25:02.941Z,21.33
2018-11-28T01:27:35.295Z,28.07
2018-11-28T01:30:09.694Z,16.03
2018-11-28T01:32:41.778Z,18.70
2018-11-28T01:35:14.786Z,21.03
2018-11-28T01:37:47.293Z,17.90
2018-11-28T01:40:21.397Z,19.80
2018-11-28T01:42:54.161Z,23.50
2018-11-28T01:45:26.537Z,20.13
2018-11-28T01:47:58.783Z,22.97
2018-11-28T01:50:31.381Z,20.30
2018-11-28T01:53:04.767Z,19.70
2018-11-28T01:55:37.343Z,17.50
2018-11-28T01:58:10.167Z,17.10
2018-11-28T02:00:43.116Z,23.07
2018-11-28T02:03:17.755Z,16.63
2018-11-28T02:05:50.200Z,17.53
2018-11-28T02:08:22.782Z,20.27
2018-11-28T02:10:55.375Z,39.77
2018-11-28T02:13:27.665Z,36.43
2018-11-28T02:15:59.931Z,36.33
2018-11-28T02:18:32.160Z,23.23
2018-11-28T02:21:04.522Z,23.90
2018-11-28T02:23:37.753Z,19.83
2018-11-28T02:26:10.084Z,21.13
2018-11-28T02:28:43.410Z,21.27
2018-11-28T02:31:15.830Z,20.80
2018-11-28T02:33:48.208Z,22.60
2018-11-28T02:36:20.586Z,23.67
2018-11-28T02:38:52.856Z,21.97
2018-11-28T02:41:25.513Z,20.03
2018-11-28T02:44:02.560Z,25.37
2018-11-28T02:46:35.823Z,20.37
2018-11-28T02:49:08.073Z,22.73
2018-11-28T02:51:40.659Z,16.90
2018-11-28T02:54:14.255Z,20.37
2018-11-28T02:56:47.766Z,17.33
2018-11-28T02:59:19.932Z,12.80
2018-11-28T03:01:52.149Z,17.60
2018-11-28T03:04:24.707Z,13.70
2018-11-28T03:06:57.236Z,21.40
2018-11-28T03:09:29.619Z,20.53
2018-11-28T03:12:02.332Z,21.60
2018-11-28T03:14:34.944Z,15.00
2018-11-28T03:17:07.721Z,17.93
2018-11-28T03:19:40.056Z,10.40
2018-11-28T03:22:12.430Z,16.50
2018-11-28T03:24:44.820Z,22.23
2018-11-28T03:27:16.904Z,7.53
2018-11-28T03:29:48.651Z,13.43
2018-11-28T03:32:20.446Z,16.03
2018-11-28T03:34:52.520Z,20.07
2018-11-28T03:37:25.217Z,13.03
2018-11-28T03:39:57.765Z,8.23
2018-11-28T03:42:30.375Z,15.77
2018-11-28T03:45:02.799Z,13.10
2018-11-28T03:47:34.938Z,18.03
2018-11-28T03:50:07.183Z,18.93
2018-11-28T03:52:39.462Z,14.73
2018-11-28T03:55:13.035Z,16.10
2018-11-28T03:57:46.224Z,21.90
2018-11-28T04:00:21.135Z,18.00
2018-11-28T04:02:54.473Z,14.37
2018-11-28T04:05:27.297Z,16.13
2018-11-28T04:07:59.763Z,16.93
2018-11-28T04:10:33.025Z,18.03
2018-11-28T04:13:05.044Z,19.47
2018-11-28T04:15:36.912Z,15.70
2018-11-28T04:18:09.299Z,16.17
2018-11-28T04:20:41.273Z,16.33
2018-11-28T04:23:13.516Z,16.77
2018-11-28T04:25:45.822Z,14.07
2018-11-28T04:28:18.188Z,12.83
2018-11-28T04:30:50.806Z,18.17
2018-11-28T04:33:22.722Z,15.10
2018-11-28T04:35:55.095Z,19.07
2018-11-28T04:38:27.222Z,16.53
2018-11-28T04:40:59.698Z,14.47
2018-11-28T04:43:32.028Z,13.70
2018-11-28T04:46:04.261Z,18.43
2018-11-28T04:48:37.496Z,13.27
2018-11-28T04:51:09.745Z,13.80
2018-11-28T04:53:42.275Z,14.70
2018-11-28T04:56:14.766Z,12.10
2018-11-28T04:58:47.062Z,11.47
2018-11-28T05:01:19.515Z,13.77
2018-11-28T05:03:51.865Z,12.63
2018-11-28T05:07:28.780Z,11.60
2018-11-28T05:10:01.459Z,12.80
2018-11-28T05:12:33.342Z,11.30
2018-11-28T05:15:05.279Z,14.57
2018-11-28T05:17:37.119Z,9.83
2018-11-28T05:20:11.787Z,13.20
2018-11-28T05:22:44.409Z,12.43
2018-11-28T05:25:20.339Z,10.20
2018-11-28T05:27:53.592Z,9.90
2018-11-28T05:30:26.361Z,11.27
2018-11-28T05:32:58.189Z,10.73
2018-11-28T05:35:37.100Z,9.53
2018-11-28T05:38:15.257Z,14.17
2018-11-28T05:40:47.719Z,11.30
2018-11-28T05:43:20.664Z,10.87
2018-11-28T05:45:53.471Z,16.87
2018-11-28T05:48:26.365Z,11.90
2018-11-28T05:50:58.176Z,13.60
2018-11-28T05:53:30.651Z,9.63
2018-11-28T05:56:03.547Z,14.60
2018-11-28T05:58:35.344Z,12.93
2018-11-28T06:01:07.752Z,11.50
2018-11-28T06:03:40.090Z,7.00
2018-11-28T06:06:12.401Z,7.40
2018-11-28T06:08:45.315Z,7.77
2018-11-28T06:11:17.578Z,7.63
2018-11-28T06:13:49.853Z,6.30
2018-11-28T06:16:23.408Z,10.03
2018-11-28T06:18:55.484Z,12.53
2018-11-28T06:21:28.205Z,7.53
2018-11-28T06:24:00.875Z,5.00
2018-11-28T06:26:33.374Z,9.43
2018-11-28T06:29:05.644Z,8.10
2018-11-28T06:31:38.119Z,7.47
2018-11-28T06:34:10.180Z,9.83
2018-11-28T06:36:42.459Z,12.30
2018-11-28T06:39:14.490Z,11.63
2018-11-28T06:41:46.863Z,11.53
2018-11-28T06:44:19.078Z,5.47
2018-11-28T06:46:51.335Z,8.27
2018-11-28T06:49:23.780Z,7.63
2018-11-28T06:51:56.374Z,7.10
2018-11-28T06:54:28.916Z,4.83
2018-11-28T06:57:01.294Z,10.30
2018-11-28T06:59:33.640Z,6.87
2018-11-28T07:02:06.521Z,5.63
2018-11-28T07:04:39.019Z,5.00
2018-11-28T07:07:11.588Z,4.20
2018-11-28T07:09:44.128Z,4.00
2018-11-28T07:12:16.710Z,9.73
2018-11-28T07:14:49.104Z,6.17
2018-11-28T07:17:21.691Z,8.77
2018-11-28T07:19:54.074Z,8.53
2018-11-28T07:22:26.239Z,6.13
2018-11-28T07:24:58.830Z,4.30
2018-11-28T07:27:31.164Z,7.62
2018-11-28T07:30:03.755Z,5.95
2018-11-28T07:32:36.103Z,5.85
2018-11-28T07:35:09.245Z,5.78
2018-11-28T07:37:41.568Z,6.15
2018-11-28T07:40:16.600Z,5.03
2018-11-28T07:42:57.379Z,4.53
2018-11-28T07:45:29.806Z,6.28
2018-11-28T07:48:02.055Z,6.40
2018-11-28T07:50:35.008Z,6.53
2018-11-28T07:53:07.534Z,10.30
2018-11-28T07:55:39.759Z,10.13
2018-11-28T07:58:12.066Z,9.90
2018-11-28T08:00:44.717Z,7.37
2018-11-28T08:03:17.007Z,7.08
2018-11-28T08:05:49.393Z,9.50
2018-11-28T08:08:21.986Z,5.83
2018-11-28T08:10:54.542Z,4.50
2018-11-28T08:13:26.993Z,5.27
2018-11-28T08:15:59.438Z,8.73
2018-11-28T08:18:31.970Z,5.75
2018-11-28T08:21:04.339Z,6.83
2018-11-28T08:23:36.562Z,9.70
2018-11-28T08:26:08.845Z,5.30
2018-11-28T08:28:41.120Z,5.87
2018-11-28T08:31:13.341Z,7.37
2018-11-28T08:33:45.470Z,7.53
2018-11-28T08:36:17.870Z,5.30
2018-11-28T08:38:50.269Z,5.10
2018-11-28T08:41:23.351Z,8.40
2018-11-28T08:43:55.679Z,8.13
2018-11-28T08:46:27.871Z,10.90
2018-11-28T08:49:00.106Z,9.03
2018-11-28T08:51:32.508Z,7.80
2018-11-28T08:54:04.899Z,8.25
2018-11-28T08:56:37.276Z,7.45
2018-11-28T08:59:09.539Z,5.78
2018-11-28T09:01:41.568Z,8.38
2018-11-28T09:04:13.866Z,6.30
2018-11-28T09:06:46.076Z,7.90
2018-11-28T09:09:18.551Z,11.30
2018-11-28T09:11:50.739Z,8.45
2018-11-28T09:14:23.421Z,8.73
2018-11-28T09:16:56.033Z,8.58
2018-11-28T09:19:28.063Z,6.50
2018-11-28T09:22:00.693Z,4.92
2018-11-28T09:24:32.997Z,6.87
2018-11-28T09:27:05.261Z,7.85
2018-11-28T09:29:37.478Z,7.15
2018-11-28T09:32:10.120Z,5.20
2018-11-28T09:34:42.489Z,9.25
2018-11-28T09:37:14.687Z,13.03
2018-11-28T09:39:47.241Z,9.03
2018-11-28T09:42:19.720Z,13.72
2018-11-28T09:44:51.789Z,11.75
2018-11-28T09:47:24.155Z,14.63
2018-11-28T09:49:56.405Z,11.00
2018-11-28T09:52:28.955Z,13.72
2018-11-28T09:55:01.283Z,8.75
2018-11-28T09:57:33.398Z,10.18
2018-11-28T10:00:06.262Z,14.70
2018-11-28T10:02:38.688Z,10.55
2018-11-28T10:05:15.662Z,10.15
2018-11-28T10:07:48.010Z,9.33
2018-11-28T10:10:20.411Z,5.78
2018-11-28T10:12:52.933Z,10.10
2018-11-28T10:15:25.789Z,8.65
2018-11-28T10:17:58.120Z,14.30
2018-11-28T10:20:30.497Z,9.03
2018-11-28T10:23:02.797Z,6.95
2018-11-28T10:25:35.287Z,11.75
2018-11-28T10:28:09.591Z,10.45
2018-11-28T10:30:42.137Z,10.23
2018-11-28T10:33:15.199Z,11.50
2018-11-28T10:35:47.517Z,13.53
2018-11-28T10:38:20.513Z,11.78
2018-11-28T10:40:52.860Z,11.53
2018-11-28T10:43:25.278Z,8.45
2018-11-28T10:45:57.760Z,9.40
2018-11-28T10:48:29.924Z,8.78
2018-11-28T10:51:02.237Z,16.07
2018-11-28T10:53:34.623Z,15.65
2018-11-28T10:56:07.517Z,14.13
2018-11-28T10:58:39.825Z,18.20
2018-11-28T11:01:16.379Z,8.87
2018-11-28T11:03:53.262Z,14.63
2018-11-28T11:06:30.041Z,14.13
2018-11-28T11:09:07.561Z,9.83
2018-11-28T11:11:44.508Z,14.10
2018-11-28T11:14:53.046Z,13.67
2018-11-28T11:17:25.421Z,16.23
2018-11-28T11:19:58.171Z,13.62
2018-11-28T11:22:30.222Z,21.02
2018-11-28T11:25:02.682Z,12.85
2018-11-28T11:27:34.730Z,20.00
2018-11-28T11:30:08.532Z,15.85
2018-11-28T11:32:40.688Z,16.77
2018-11-28T11:35:13.411Z,17.80
2018-11-28T11:37:45.659Z,18.27
2018-11-28T11:40:18.057Z,17.40
2018-11-28T11:42:50.485Z,15.48
2018-11-28T11:45:22.749Z,10.00
2018-11-28T11:47:55.167Z,13.23
2018-11-28T11:50:27.552Z,17.90
2018-11-28T11:53:00.098Z,20.10
2018-11-28T11:55:32.219Z,10.60
2018-11-28T11:58:04.604Z,16.93
2018-11-28T12:00:39.470Z,22.02
2018-11-28T12:03:12.651Z,20.40
2018-11-28T12:05:47.803Z,19.25
2018-11-28T12:08:20.425Z,14.10
2018-11-28T12:10:52.813Z,21.85
2018-11-28T12:13:25.165Z,21.25
2018-11-28T12:15:57.488Z,24.98
2018-11-28T12:18:30.113Z,17.82
2018-11-28T12:21:05.248Z,21.02
2018-11-28T12:23:37.875Z,23.77
2018-11-28T12:26:10.191Z,20.20
2018-11-28T12:28:42.953Z,22.73
2018-11-28T12:31:15.369Z,13.90
2018-11-28T12:33:48.258Z,17.80
2018-11-28T12:36:21.008Z,22.30
2018-11-28T12:38:53.562Z,19.60
2018-11-28T12:41:25.921Z,21.25
2018-11-28T12:43:58.536Z,24.32
2018-11-28T12:46:31.279Z,14.58
2018-11-28T12:49:03.416Z,13.28
2018-11-28T12:51:36.024Z,14.68
2018-11-28T12:54:08.126Z,15.00
2018-11-28T12:56:40.500Z,18.77
2018-11-28T12:59:12.873Z,14.60
2018-11-28T13:01:45.247Z,19.87
2018-11-28T13:04:17.565Z,16.35
2018-11-28T13:06:50.128Z,17.65
2018-11-28T13:09:22.507Z,14.87
2018-11-28T13:11:59.882Z,14.75
2018-11-28T13:14:27.711Z,17.32
2018-11-28T13:17:00.014Z,19.52
2018-11-28T13:19:32.176Z,12.78
2018-11-28T13:22:04.584Z,25.40
2018-11-28T13:24:37.339Z,21.37
2018-11-28T13:27:10.119Z,15.98
2018-11-28T13:29:42.498Z,18.65
2018-11-28T13:32:14.896Z,15.90
2018-11-28T13:34:47.205Z,12.98
2018-11-28T13:37:20.239Z,16.73
2018-11-28T13:39:52.669Z,16.55
2018-11-28T13:42:24.873Z,16.17
2018-11-28T13:44:56.980Z,24.07
2018-11-28T13:47:28.967Z,32.78
2018-11-28T13:50:01.144Z,37.77
2018-11-28T13:52:33.685Z,49.47
2018-11-28T13:55:37.753Z,25.10
2018-11-28T13:57:39.811Z,12.57
2018-11-28T14:00:12.573Z,5.65
2018-11-28T14:02:45.007Z,15.60
2018-11-28T14:05:17.395Z,7.17
2018-11-28T14:07:49.841Z,6.53
2018-11-28T14:10:21.932Z,3.57
2018-11-28T14:12:54.809Z,4.80
2018-11-28T14:15:27.592Z,7.90
2018-11-28T14:18:00.976Z,8.80
2018-11-28T14:20:33.307Z,4.20
2018-11-28T14:23:06.348Z,7.20
2018-11-28T14:25:38.476Z,10.23
2018-11-28T14:28:11.676Z,8.60
2018-11-28T14:30:44.019Z,9.07
2018-11-28T14:33:16.151Z,9.37
2018-11-28T14:35:48.339Z,6.50
2018-11-28T14:38:21.450Z,5.40
2018-11-28T14:40:53.674Z,8.17
2018-11-28T14:43:26.025Z,5.60
2018-11-28T14:45:58.400Z,5.33
2018-11-28T14:48:30.542Z,5.80
2018-11-28T14:51:02.836Z,6.57
2018-11-28T14:53:35.200Z,6.20
2018-11-28T14:56:07.719Z,9.00
2018-11-28T14:58:40.286Z,7.00
2018-11-28T15:01:12.680Z,2.80
2018-11-28T15:03:45.097Z,2.90
2018-11-28T15:06:24.775Z,3.63
2018-11-28T15:09:01.723Z,4.93
2018-11-28T15:11:33.866Z,5.13
2018-11-28T15:14:06.506Z,6.87
2018-11-28T15:16:38.579Z,7.70
2018-11-28T15:19:11.004Z,5.47
2018-11-28T15:21:43.552Z,7.87
2018-11-28T15:24:15.649Z,4.87
2018-11-28T15:26:48.071Z,3.03
2018-11-28T15:29:20.419Z,5.70
2018-11-28T15:31:53.306Z,3.00
2018-11-28T15:34:25.837Z,3.70
2018-11-28T15:36:58.150Z,3.03
2018-11-28T15:39:30.783Z,3.80
2018-11-28T15:42:03.076Z,4.17
2018-11-28T15:44:35.414Z,2.62
2018-11-28T15:47:07.931Z,2.93
2018-11-28T15:49:40.203Z,3.43
2018-11-28T15:52:12.580Z,5.10
2018-11-28T15:54:45.030Z,3.87
2018-11-28T15:57:17.602Z,6.00
2018-11-28T15:59:49.798Z,5.07
2018-11-28T16:02:22.186Z,3.00
2018-11-28T16:04:54.728Z,3.43
2018-11-28T16:07:27.191Z,5.23
2018-11-28T16:10:04.017Z,2.23
2018-11-28T16:12:36.200Z,3.30
2018-11-28T16:15:09.418Z,5.20
2018-11-28T16:17:42.300Z,5.10
2018-11-28T16:20:14.669Z,5.90
2018-11-28T16:22:46.962Z,3.53
2018-11-28T16:25:19.639Z,3.83
2018-11-28T16:27:51.852Z,4.47
2018-11-28T16:30:24.270Z,2.93
2018-11-28T16:32:56.679Z,6.70
2018-11-28T16:35:29.035Z,5.30
2018-11-28T16:38:01.561Z,5.60
2018-11-28T16:40:33.863Z,3.07
2018-11-28T16:43:06.250Z,4.20
2018-11-28T16:45:38.545Z,3.10
2018-11-28T16:48:10.810Z,3.93
2018-11-28T16:50:43.284Z,3.40
2018-11-28T16:53:15.700Z,5.43
2018-11-28T16:55:47.816Z,6.87
2018-11-28T16:58:20.397Z,3.87
2018-11-28T17:00:52.666Z,5.30
2018-11-28T17:03:25.239Z,4.60
2018-11-28T17:05:57.641Z,5.47
2018-11-28T17:08:29.758Z,8.80
2018-11-28T17:11:02.371Z,5.87
2018-11-28T17:13:34.889Z,4.13
2018-11-28T17:16:07.728Z,4.23
2018-11-28T17:18:40.236Z,4.70
2018-11-28T17:21:12.608Z,4.30
2018-11-28T17:23:44.839Z,4.07
2018-11-28T17:26:17.016Z,4.63
2018-11-28T17:28:49.616Z,2.97
2018-11-28T17:31:22.126Z,4.07
2018-11-28T17:33:54.509Z,4.00
2018-11-28T17:36:27.143Z,3.33
2018-11-28T17:38:59.469Z,3.30
2018-11-28T17:41:32.012Z,4.20
2018-11-28T17:44:04.474Z,3.33
2018-11-28T17:46:36.914Z,3.23
2018-11-28T17:49:09.412Z,5.13
2018-11-28T17:51:42.056Z,5.00
2018-11-28T17:54:15.232Z,6.70
2018-11-28T17:56:47.449Z,5.03
2018-11-28T17:59:19.994Z,4.83
2018-11-28T18:01:52.036Z,5.43
2018-11-28T18:04:29.917Z,4.37
2018-11-28T18:06:57.266Z,3.80
2018-11-28T18:09:29.533Z,6.80
2018-11-28T18:12:02.034Z,6.53
2018-11-28T18:14:34.311Z,6.40
2018-11-28T18:17:06.724Z,4.93
2018-11-28T18:19:39.526Z,4.83
2018-11-28T18:22:12.036Z,7.00
2018-11-28T18:24:44.111Z,4.00
2018-11-28T18:27:16.738Z,5.90
2018-11-28T18:29:49.018Z,8.20
2018-11-28T18:32:21.267Z,6.10
2018-11-28T18:34:53.973Z,6.13
2018-11-28T18:37:26.351Z,6.47
2018-11-28T18:39:58.917Z,8.57
2018-11-28T18:42:31.595Z,10.83
2018-11-28T18:45:04.266Z,10.83
2018-11-28T18:47:36.490Z,11.70
2018-11-28T18:50:09.817Z,11.13
2018-11-28T18:52:42.119Z,13.57
2018-11-28T18:55:17.944Z,10.60
2018-11-28T18:57:53.419Z,14.87
2018-11-28T19:00:26.309Z,11.53
2018-11-28T19:02:58.839Z,15.00
2018-11-28T19:05:30.986Z,12.50
2018-11-28T19:08:03.488Z,8.93
2018-11-28T19:10:35.659Z,8.93
2018-11-28T19:13:08.376Z,8.40
2018-11-28T19:15:40.625Z,7.63
2018-11-28T19:18:13.000Z,9.27
2018-11-28T19:20:45.403Z,9.17
2018-11-28T19:23:17.587Z,11.60
2018-11-28T19:25:50.328Z,13.77
2018-11-28T19:28:22.473Z,15.90
2018-11-28T19:30:54.824Z,14.83
2018-11-28T19:33:27.421Z,12.70
2018-11-28T19:35:59.763Z,15.30
2018-11-28T19:38:32.279Z,12.47
2018-11-28T19:41:08.232Z,13.93
2018-11-28T19:43:40.686Z,13.40
2018-11-28T19:46:13.589Z,10.77
2018-11-28T19:48:45.675Z,14.77
2018-11-28T19:51:18.194Z,10.20
2018-11-28T19:53:50.791Z,11.10
2018-11-28T19:56:23.106Z,6.43
2018-11-28T19:58:55.624Z,7.60
2018-11-28T20:01:28.130Z,11.47
2018-11-28T20:04:00.663Z,7.47
2018-11-28T20:06:33.219Z,12.40
2018-11-28T20:09:06.960Z,8.90
2018-11-28T20:11:39.235Z,9.80
2018-11-28T20:14:11.559Z,10.23
2018-11-28T20:16:43.751Z,6.83
2018-11-28T20:19:17.662Z,6.13
2018-11-28T20:21:49.719Z,9.43
2018-11-28T20:24:22.245Z,8.67
2018-11-28T20:26:54.617Z,9.60
2018-11-28T20:29:26.926Z,13.03
2018-11-28T20:31:59.101Z,9.73
2018-11-28T20:34:32.931Z,12.03
2018-11-28T20:37:05.304Z,11.40
2018-11-28T20:39:37.853Z,9.10
2018-11-28T20:42:09.874Z,7.73
2018-11-28T20:44:42.182Z,8.53
2018-11-28T20:47:14.373Z,7.43
2018-11-28T20:49:46.743Z,7.00
2018-11-28T20:52:19.061Z,9.60
2018-11-28T20:55:07.139Z,8.03
2018-11-28T20:57:39.312Z,7.20
2018-11-28T21:00:19.744Z,7.20
2018-11-28T21:02:52.293Z,7.80
2018-11-28T21:05:24.678Z,9.53
2018-11-28T21:07:57.174Z,5.77
2018-11-28T21:10:34.010Z,9.47
2018-11-28T21:13:06.729Z,8.27
2018-11-28T21:15:39.201Z,6.03
2018-11-28T21:18:12.441Z,6.50
2018-11-28T21:20:45.733Z,6.87
2018-11-28T21:23:18.891Z,10.60
2018-11-28T21:25:51.409Z,6.83
2018-11-28T21:28:23.517Z,4.70
2018-11-28T21:30:55.650Z,7.60
2018-11-28T21:33:27.834Z,7.27
2018-11-28T21:36:00.618Z,7.17
2018-11-28T21:38:32.796Z,6.60
2018-11-28T21:41:05.017Z,6.23
2018-11-28T21:43:37.315Z,7.43
2018-11-28T21:46:10.101Z,9.00
2018-11-28T21:48:42.663Z,5.73
2018-11-28T21:51:15.034Z,7.80
2018-11-28T21:53:47.552Z,7.77
2018-11-28T21:56:19.980Z,7.60
2018-11-28T21:58:52.530Z,9.33
2018-11-28T22:01:24.918Z,8.17
2018-11-28T22:03:57.262Z,9.90
2018-11-28T22:06:29.612Z,10.23
2018-11-28T22:09:02.998Z,9.17
2018-11-28T22:11:35.189Z,9.13
2018-11-28T22:14:07.866Z,9.00
2018-11-28T22:16:39.939Z,9.10
2018-11-28T22:19:12.455Z,13.47
2018-11-28T22:21:44.912Z,11.30
2018-11-28T22:24:17.237Z,11.67
2018-11-28T22:26:49.640Z,10.30
2018-11-28T22:29:21.984Z,6.47
2018-11-28T22:31:54.408Z,10.50
2018-11-28T22:34:26.785Z,8.10
2018-11-28T22:36:59.326Z,10.73
2018-11-28T22:39:31.848Z,9.70
2018-11-28T22:42:04.261Z,9.43
2018-11-28T22:44:36.587Z,23.23
2018-11-28T22:47:08.974Z,9.60
2018-11-28T22:49:41.027Z,10.57
2018-11-28T22:52:13.315Z,12.93
2018-11-28T22:54:45.570Z,16.87
2018-11-28T22:57:17.754Z,12.17
2018-11-28T22:59:50.136Z,12.27
2018-11-28T23:02:40.798Z,9.03
2018-11-28T23:05:13.070Z,17.20
2018-11-28T23:07:45.308Z,11.20
2018-11-28T23:10:17.487Z,16.07
2018-11-28T23:12:50.017Z,14.50
2018-11-28T23:15:22.185Z,12.03
2018-11-28T23:17:55.489Z,15.17
2018-11-28T23:20:27.139Z,13.17
2018-11-28T23:22:59.729Z,11.70
2018-11-28T23:25:32.261Z,10.70
2018-11-28T23:28:04.695Z,11.70
2018-11-28T23:30:37.038Z,12.17
2018-11-28T23:33:16.099Z,12.07
2018-11-28T23:35:45.458Z,13.30
2018-11-28T23:38:18.269Z,10.93
2018-11-28T23:40:50.840Z,10.87
2018-11-28T23:43:23.204Z,10.33
2018-11-28T23:45:56.605Z,8.37
2018-11-28T23:48:29.172Z,12.00
2018-11-28T23:51:01.858Z,13.97
2018-11-28T23:53:34.236Z,15.03
2018-11-28T23:56:06.977Z,9.90
2018-11-28T23:58:39.347Z,9.23
